createdAt,value
2018-09-16T00:01:07.988Z,13.20
2018-09-16T00:03:36.602Z,13.20
2018-09-16T00:06:05.295Z,13.10
2018-09-16T00:08:33.914Z,13.10
2018-09-16T00:11:02.536Z,13.10
2018-09-16T00:13:31.190Z,13.00
2018-09-16T00:15:59.800Z,13.00
2018-09-16T00:18:28.445Z,13.00
2018-09-16T00:20:56.997Z,12.90
2018-09-16T00:23:25.683Z,12.90
2018-09-16T00:25:54.263Z,12.90
2018-09-16T00:28:22.975Z,12.80
2018-09-16T00:30:51.554Z,12.80
2018-09-16T00:33:20.137Z,12.80
2018-09-16T00:35:48.751Z,12.80
2018-09-16T00:38:17.333Z,12.70
2018-09-16T00:40:45.858Z,12.70
2018-09-16T00:43:14.461Z,12.70
2018-09-16T00:45:43.082Z,12.70
2018-09-16T00:48:11.692Z,12.70
2018-09-16T00:50:40.465Z,12.60
2018-09-16T00:53:09.057Z,12.60
2018-09-16T00:55:37.624Z,12.60
2018-09-16T00:58:06.294Z,12.60
2018-09-16T01:00:35.001Z,12.60
2018-09-16T01:03:03.641Z,12.50
2018-09-16T01:05:36.454Z,12.50
2018-09-16T01:08:05.136Z,12.50
2018-09-16T01:10:34.152Z,12.50
2018-09-16T01:13:02.742Z,12.50
2018-09-16T01:15:31.460Z,12.40
2018-09-16T01:18:00.050Z,12.40
2018-09-16T01:20:28.631Z,12.40
2018-09-16T01:22:57.216Z,12.40
2018-09-16T01:25:25.837Z,12.30
2018-09-16T01:27:54.391Z,12.30
2018-09-16T01:30:23.053Z,12.30
2018-09-16T01:32:51.584Z,12.20
2018-09-16T01:35:20.159Z,12.20
2018-09-16T01:37:54.069Z,12.20
2018-09-16T01:40:22.609Z,12.20
2018-09-16T01:42:51.262Z,12.10
2018-09-16T01:45:19.897Z,12.10
2018-09-16T01:47:48.493Z,12.10
2018-09-16T01:50:17.167Z,12.10
2018-09-16T01:52:45.756Z,12.10
2018-09-16T01:55:14.332Z,12.00
2018-09-16T01:57:42.918Z,12.00
2018-09-16T02:00:11.554Z,12.00
2018-09-16T02:02:40.095Z,11.90
2018-09-16T02:05:08.706Z,11.90
2018-09-16T02:07:37.277Z,11.90
2018-09-16T02:10:05.874Z,11.90
2018-09-16T02:12:34.427Z,11.80
2018-09-16T02:15:02.948Z,11.80
2018-09-16T02:17:31.490Z,11.80
2018-09-16T02:20:00.179Z,11.80
2018-09-16T02:22:28.785Z,11.70
2018-09-16T02:24:57.492Z,11.70
2018-09-16T02:27:26.057Z,11.70
2018-09-16T02:29:54.581Z,11.70
2018-09-16T02:32:23.140Z,11.60
2018-09-16T02:34:51.729Z,11.60
2018-09-16T02:37:20.763Z,11.60
2018-09-16T02:39:49.305Z,11.60
2018-09-16T02:42:17.887Z,11.50
2018-09-16T02:44:46.490Z,11.50
2018-09-16T02:47:15.020Z,11.50
2018-09-16T02:49:44.191Z,11.50
2018-09-16T02:52:12.761Z,11.50
2018-09-16T02:54:41.278Z,11.40
2018-09-16T02:57:10.089Z,11.40
2018-09-16T02:59:38.714Z,11.40
2018-09-16T03:02:07.264Z,11.40
2018-09-16T03:04:36.030Z,11.40
2018-09-16T03:07:04.654Z,11.40
2018-09-16T03:09:33.256Z,11.30
2018-09-16T03:12:01.855Z,11.30
2018-09-16T03:14:30.425Z,11.30
2018-09-16T03:16:59.004Z,11.30
2018-09-16T03:19:27.564Z,11.30
2018-09-16T03:21:56.264Z,11.30
2018-09-16T03:24:24.857Z,11.30
2018-09-16T03:26:53.391Z,11.30
2018-09-16T03:29:21.937Z,11.20
2018-09-16T03:31:50.625Z,11.20
2018-09-16T03:34:19.153Z,11.20
2018-09-16T03:36:47.686Z,11.10
2018-09-16T03:39:16.352Z,11.10
2018-09-16T03:41:45.019Z,11.10
2018-09-16T03:44:13.567Z,11.00
2018-09-16T03:46:42.193Z,11.10
2018-09-16T03:49:11.634Z,11.00
2018-09-16T03:51:40.210Z,11.00
2018-09-16T03:54:09.173Z,11.00
2018-09-16T03:56:37.715Z,11.00
2018-09-16T03:59:06.247Z,10.90
2018-09-16T04:01:34.959Z,10.90
2018-09-16T04:04:03.539Z,10.90
2018-09-16T04:06:32.257Z,10.90
2018-09-16T04:09:00.832Z,10.90
2018-09-16T04:11:29.387Z,10.80
2018-09-16T04:13:58.012Z,10.80
2018-09-16T04:16:26.517Z,10.80
2018-09-16T04:18:55.228Z,10.80
2018-09-16T04:21:23.830Z,10.70
2018-09-16T04:23:52.331Z,10.70
2018-09-16T04:26:20.938Z,10.70
2018-09-16T04:28:49.499Z,10.70
2018-09-16T04:31:18.044Z,10.80
2018-09-16T04:33:46.620Z,10.80
2018-09-16T04:36:15.217Z,10.80
2018-09-16T04:38:43.853Z,10.80
2018-09-16T04:41:12.437Z,10.80
2018-09-16T04:43:40.969Z,10.90
2018-09-16T04:46:09.567Z,10.90
2018-09-16T04:48:38.182Z,11.00
2018-09-16T04:51:06.693Z,11.10
2018-09-16T04:53:35.202Z,11.20
2018-09-16T04:56:03.765Z,11.20
2018-09-16T04:58:32.336Z,11.20
2018-09-16T05:01:00.966Z,11.30
2018-09-16T05:03:29.489Z,11.30
2018-09-16T05:05:58.108Z,11.30
2018-09-16T05:08:26.626Z,11.30
2018-09-16T05:10:55.171Z,11.30
2018-09-16T05:13:23.826Z,11.40
2018-09-16T05:15:52.407Z,11.40
2018-09-16T05:18:21.124Z,11.30
2018-09-16T05:20:49.894Z,11.30
2018-09-16T05:23:20.500Z,11.40
2018-09-16T05:25:49.216Z,11.40
2018-09-16T05:28:17.919Z,11.50
2018-09-16T05:30:46.721Z,11.50
2018-09-16T05:33:15.389Z,11.50
2018-09-16T05:35:44.327Z,11.60
2018-09-16T05:38:12.893Z,11.60
2018-09-16T05:40:41.747Z,11.60
2018-09-16T05:43:10.295Z,11.60
2018-09-16T05:45:38.890Z,11.70
2018-09-16T05:48:07.615Z,11.70
2018-09-16T05:50:36.216Z,11.80
2018-09-16T05:53:04.933Z,11.80
2018-09-16T05:55:33.395Z,11.90
2018-09-16T05:58:02.025Z,12.00
2018-09-16T06:00:30.762Z,12.10
2018-09-16T06:02:59.324Z,12.40
2018-09-16T06:05:27.897Z,12.60
2018-09-16T06:07:56.693Z,12.90
2018-09-16T06:10:25.282Z,13.10
2018-09-16T06:12:53.941Z,13.60
2018-09-16T06:15:22.629Z,13.90
2018-09-16T06:17:51.293Z,14.30
2018-09-16T06:20:19.931Z,14.60
2018-09-16T06:22:48.756Z,14.90
2018-09-16T06:25:17.446Z,15.10
2018-09-16T06:27:46.031Z,15.20
2018-09-16T06:30:14.686Z,15.50
2018-09-16T06:32:43.262Z,15.90
2018-09-16T06:35:11.880Z,16.10
2018-09-16T06:37:40.496Z,16.50
2018-09-16T06:40:09.184Z,16.70
2018-09-16T06:42:37.832Z,16.90
2018-09-16T06:45:06.728Z,17.20
2018-09-16T06:47:35.392Z,17.30
2018-09-16T06:50:04.027Z,17.50
2018-09-16T06:52:32.752Z,17.90
2018-09-16T06:55:01.416Z,18.00
2018-09-16T06:57:30.143Z,18.30
2018-09-16T06:59:58.752Z,18.40
2018-09-16T07:02:27.347Z,18.80
2018-09-16T07:04:55.940Z,19.00
2018-09-16T07:07:25.214Z,19.10
2018-09-16T07:09:53.997Z,19.40
2018-09-16T07:12:22.588Z,19.70
2018-09-16T07:14:51.224Z,19.80
2018-09-16T07:17:19.861Z,19.90
2018-09-16T07:19:48.469Z,19.90
2018-09-16T07:22:17.099Z,20.30
2018-09-16T07:24:45.715Z,20.50
2018-09-16T07:27:14.461Z,20.60
2018-09-16T07:29:43.026Z,20.60
2018-09-16T07:32:11.777Z,20.90
2018-09-16T07:34:40.636Z,21.30
2018-09-16T07:37:09.328Z,21.60
2018-09-16T07:39:38.149Z,21.60
2018-09-16T07:42:06.728Z,21.40
2018-09-16T07:44:35.303Z,21.80
2018-09-16T07:47:04.974Z,22.10
2018-09-16T07:49:33.578Z,22.30
2018-09-16T07:52:02.244Z,22.60
2018-09-16T07:54:30.823Z,22.80
2018-09-16T07:56:59.482Z,23.00
2018-09-16T07:59:28.089Z,23.20
2018-09-16T08:01:56.687Z,23.40
2018-09-16T08:04:25.339Z,23.50
2018-09-16T08:06:54.001Z,23.40
2018-09-16T08:09:22.560Z,23.80
2018-09-16T08:11:51.223Z,23.80
2018-09-16T08:14:19.895Z,24.10
2018-09-16T08:16:48.496Z,24.20
2018-09-16T08:19:17.127Z,24.40
2018-09-16T08:21:45.835Z,24.30
2018-09-16T08:24:14.388Z,24.50
2018-09-16T08:26:43.011Z,24.60
2018-09-16T08:29:11.636Z,24.70
2018-09-16T08:31:40.352Z,24.90
2018-09-16T08:34:08.904Z,25.00
2018-09-16T08:36:37.537Z,25.10
2018-09-16T08:39:09.016Z,25.40
2018-09-16T08:41:37.715Z,25.30
2018-09-16T08:44:06.344Z,25.40
2018-09-16T08:46:35.536Z,25.80
2018-09-16T08:49:04.206Z,25.90
2018-09-16T08:51:32.829Z,26.10
2018-09-16T08:54:01.604Z,26.00
2018-09-16T08:56:30.199Z,24.80
2018-09-16T08:58:58.889Z,25.00
2018-09-16T09:01:27.483Z,24.40
2018-09-16T09:03:56.054Z,24.90
2018-09-16T09:06:24.618Z,24.90
2018-09-16T09:08:53.202Z,25.10
2018-09-16T09:11:21.901Z,25.30
2018-09-16T09:13:50.456Z,25.00
2018-09-16T09:16:19.937Z,25.30
2018-09-16T09:18:48.753Z,25.50
2018-09-16T09:21:17.651Z,25.70
2018-09-16T09:23:46.256Z,25.80
2018-09-16T09:26:14.821Z,25.90
2018-09-16T09:28:43.483Z,26.00
2018-09-16T09:31:12.041Z,26.20
2018-09-16T09:33:40.945Z,26.20
2018-09-16T09:36:09.524Z,26.40
2018-09-16T09:38:38.181Z,26.40
2018-09-16T09:41:06.741Z,26.70
2018-09-16T09:43:35.356Z,27.10
2018-09-16T09:46:04.057Z,27.20
2018-09-16T09:48:32.891Z,27.20
2018-09-16T09:51:01.591Z,27.20
2018-09-16T09:53:30.346Z,27.00
2018-09-16T09:55:59.259Z,27.10
2018-09-16T09:58:28.397Z,27.10
2018-09-16T10:00:56.972Z,27.00
2018-09-16T10:03:25.639Z,26.80
2018-09-16T10:05:54.260Z,26.60
2018-09-16T10:08:22.880Z,26.90
2018-09-16T10:10:51.495Z,26.40
2018-09-16T10:13:20.145Z,26.50
2018-09-16T10:15:48.785Z,26.10
2018-09-16T10:18:17.378Z,26.10
2018-09-16T10:20:46.031Z,26.20
2018-09-16T10:23:14.763Z,26.40
2018-09-16T10:25:43.442Z,26.30
2018-09-16T10:28:12.019Z,26.10
2018-09-16T10:30:40.711Z,26.10
2018-09-16T10:33:09.274Z,26.40
2018-09-16T10:35:37.835Z,26.40
2018-09-16T10:38:06.781Z,26.40
2018-09-16T10:40:35.658Z,26.20
2018-09-16T10:43:04.359Z,26.20
2018-09-16T10:45:33.029Z,25.80
2018-09-16T10:48:02.356Z,25.70
2018-09-16T10:50:30.940Z,25.40
2018-09-16T10:52:59.835Z,25.40
2018-09-16T10:55:28.679Z,25.20
2018-09-16T10:57:57.273Z,25.10
2018-09-16T11:00:26.110Z,25.20
2018-09-16T11:02:55.554Z,24.90
2018-09-16T11:05:24.199Z,25.10
2018-09-16T11:07:52.792Z,25.20
2018-09-16T11:10:21.413Z,24.90
2018-09-16T11:12:50.257Z,24.80
2018-09-16T11:15:19.066Z,25.00
2018-09-16T11:17:47.841Z,25.00
2018-09-16T11:20:16.781Z,25.30
2018-09-16T11:22:45.738Z,25.40
2018-09-16T11:25:14.695Z,25.60
2018-09-16T11:27:43.569Z,25.70
2018-09-16T11:30:12.752Z,25.60
2018-09-16T11:32:41.361Z,25.70
2018-09-16T11:35:09.935Z,25.70
2018-09-16T11:37:39.000Z,26.00
2018-09-16T11:40:08.414Z,25.80
2018-09-16T11:42:37.015Z,25.70
2018-09-16T11:45:05.686Z,25.80
2018-09-16T11:47:34.933Z,25.50
2018-09-16T11:50:03.657Z,25.80
2018-09-16T11:52:32.710Z,25.70
2018-09-16T11:55:01.303Z,25.80
2018-09-16T11:57:29.963Z,25.80
2018-09-16T11:59:58.517Z,25.60
2018-09-16T12:02:27.062Z,25.50
2018-09-16T12:04:55.821Z,25.70
2018-09-16T12:07:24.352Z,25.80
2018-09-16T12:09:52.893Z,25.90
2018-09-16T12:12:21.550Z,26.00
2018-09-16T12:14:50.235Z,26.20
2018-09-16T12:17:19.127Z,26.20
2018-09-16T12:19:47.857Z,26.20
2018-09-16T12:22:16.439Z,26.40
2018-09-16T12:24:45.261Z,26.20
2018-09-16T12:27:14.208Z,26.00
2018-09-16T12:29:43.095Z,25.90
2018-09-16T12:32:11.754Z,26.00
2018-09-16T12:34:41.289Z,26.10
2018-09-16T12:37:09.911Z,26.10
2018-09-16T12:39:39.516Z,26.20
2018-09-16T12:42:08.449Z,26.20
2018-09-16T12:44:37.146Z,26.10
2018-09-16T12:47:05.725Z,25.90
2018-09-16T12:49:34.573Z,25.90
2018-09-16T12:52:03.187Z,25.70
2018-09-16T12:54:31.734Z,25.60
2018-09-16T12:57:00.354Z,25.40
2018-09-16T12:59:29.106Z,25.30
2018-09-16T13:01:57.709Z,25.30
2018-09-16T13:04:28.650Z,25.30
2018-09-16T13:06:57.213Z,25.40
2018-09-16T13:09:26.535Z,25.50
2018-09-16T13:11:55.093Z,25.60
2018-09-16T13:14:23.739Z,25.80
2018-09-16T13:16:52.585Z,25.60
2018-09-16T13:19:21.617Z,25.40
2018-09-16T13:21:50.368Z,25.40
2018-09-16T13:24:18.955Z,25.40
2018-09-16T13:26:47.527Z,25.20
2018-09-16T13:29:16.176Z,25.10
2018-09-16T13:31:44.754Z,25.00
2018-09-16T13:34:13.242Z,25.00
2018-09-16T13:36:41.890Z,25.00
2018-09-16T13:39:11.789Z,24.90
2018-09-16T13:41:40.771Z,24.80
2018-09-16T13:44:09.319Z,24.80
2018-09-16T13:46:38.346Z,24.90
2018-09-16T13:49:06.957Z,24.90
2018-09-16T13:51:36.322Z,25.00
2018-09-16T13:54:04.991Z,25.00
2018-09-16T13:56:33.597Z,24.80
2018-09-16T13:59:02.329Z,24.80
2018-09-16T14:01:30.890Z,24.70
2018-09-16T14:03:59.867Z,24.40
2018-09-16T14:06:28.482Z,24.30
2018-09-16T14:08:57.057Z,24.30
2018-09-16T14:11:25.674Z,24.20
2018-09-16T14:13:54.288Z,24.40
2018-09-16T14:16:22.891Z,24.30
2018-09-16T14:18:51.570Z,24.40
2018-09-16T14:21:20.177Z,24.30
2018-09-16T14:23:49.997Z,24.40
2018-09-16T14:26:18.700Z,24.40
2018-09-16T14:28:47.214Z,24.40
2018-09-16T14:31:16.575Z,24.30
2018-09-16T14:33:45.100Z,24.30
2018-09-16T14:36:13.736Z,24.30
2018-09-16T14:38:42.429Z,24.40
2018-09-16T14:41:10.993Z,24.50
2018-09-16T14:43:39.514Z,24.50
2018-09-16T14:46:08.139Z,24.40
2018-09-16T14:48:37.043Z,24.30
2018-09-16T14:51:05.673Z,24.20
2018-09-16T14:53:34.282Z,24.20
2018-09-16T14:56:03.133Z,24.00
2018-09-16T14:58:32.206Z,24.00
2018-09-16T15:01:01.405Z,24.10
2018-09-16T15:03:29.973Z,24.10
2018-09-16T15:05:58.889Z,23.90
2018-09-16T15:08:27.840Z,24.00
2018-09-16T15:10:56.406Z,23.90
2018-09-16T15:13:25.791Z,23.90
2018-09-16T15:15:54.346Z,23.90
2018-09-16T15:18:22.961Z,23.90
2018-09-16T15:20:51.874Z,23.90
2018-09-16T15:23:20.464Z,23.90
2018-09-16T15:25:49.044Z,24.00
2018-09-16T15:28:17.605Z,23.70
2018-09-16T15:30:46.170Z,23.70
2018-09-16T15:33:14.714Z,23.70
2018-09-16T15:35:43.286Z,23.70
2018-09-16T15:38:12.127Z,23.70
2018-09-16T15:40:41.607Z,23.80
2018-09-16T15:43:10.318Z,23.70
2018-09-16T15:45:38.931Z,23.70
2018-09-16T15:48:07.478Z,23.60
2018-09-16T15:50:36.062Z,23.50
2018-09-16T15:53:04.528Z,23.50
2018-09-16T15:55:33.128Z,23.50
2018-09-16T15:58:02.378Z,23.50
2018-09-16T16:00:31.082Z,23.50
2018-09-16T16:02:59.558Z,23.40
2018-09-16T16:05:28.064Z,23.40
2018-09-16T16:07:56.544Z,23.40
2018-09-16T16:10:25.106Z,23.30
2018-09-16T16:12:53.630Z,23.20
2018-09-16T16:15:23.150Z,23.20
2018-09-16T16:17:51.648Z,23.10
2018-09-16T16:20:21.120Z,23.00
2018-09-16T16:22:49.583Z,23.00
2018-09-16T16:25:18.193Z,22.90
2018-09-16T16:27:46.850Z,22.80
2018-09-16T16:30:15.381Z,22.70
2018-09-16T16:32:43.870Z,22.50
2018-09-16T16:35:12.630Z,22.50
2018-09-16T16:37:41.861Z,22.40
2018-09-16T16:40:10.464Z,22.40
2018-09-16T16:42:38.979Z,22.30
2018-09-16T16:45:07.746Z,22.10
2018-09-16T16:47:36.242Z,22.10
2018-09-16T16:50:05.031Z,22.00
2018-09-16T16:52:33.661Z,21.70
2018-09-16T16:55:02.159Z,21.60
2018-09-16T16:57:30.764Z,21.40
2018-09-16T16:59:59.336Z,21.30
2018-09-16T17:02:27.883Z,21.30
2018-09-16T17:04:56.706Z,21.30
2018-09-16T17:07:25.346Z,21.20
2018-09-16T17:09:53.996Z,21.00
2018-09-16T17:12:22.565Z,20.90
2018-09-16T17:14:51.273Z,20.80
2018-09-16T17:17:20.152Z,20.60
2018-09-16T17:19:49.734Z,20.50
2018-09-16T17:22:18.527Z,20.40
2018-09-16T17:24:47.087Z,20.30
2018-09-16T17:27:15.701Z,20.30
2018-09-16T17:29:44.374Z,20.10
2018-09-16T17:32:12.975Z,20.00
2018-09-16T17:34:41.473Z,19.90
2018-09-16T17:37:10.024Z,19.90
2018-09-16T17:39:38.503Z,19.80
2018-09-16T17:42:07.104Z,19.80
2018-09-16T17:44:35.754Z,19.70
2018-09-16T17:47:04.338Z,19.60
2018-09-16T17:49:32.901Z,19.50
2018-09-16T17:52:01.479Z,19.50
2018-09-16T17:54:30.031Z,19.40
2018-09-16T17:56:58.737Z,19.40
2018-09-16T17:59:27.230Z,19.30
2018-09-16T18:01:55.719Z,19.20
2018-09-16T18:04:24.187Z,19.10
2018-09-16T18:06:52.812Z,19.00
2018-09-16T18:09:22.313Z,19.00
2018-09-16T18:11:50.902Z,19.00
2018-09-16T18:14:20.166Z,18.80
2018-09-16T18:16:48.727Z,18.80
2018-09-16T18:19:17.158Z,18.80
2018-09-16T18:21:45.861Z,18.80
2018-09-16T18:24:14.326Z,18.70
2018-09-16T18:26:42.790Z,18.70
2018-09-16T18:29:11.363Z,18.60
2018-09-16T18:31:39.926Z,18.50
2018-09-16T18:34:08.418Z,18.50
2018-09-16T18:36:36.972Z,18.50
2018-09-16T18:39:07.686Z,18.50
2018-09-16T18:41:36.258Z,18.40
2018-09-16T18:44:04.770Z,18.40
2018-09-16T18:46:33.218Z,18.30
2018-09-16T18:49:02.120Z,18.30
2018-09-16T18:51:30.674Z,18.20
2018-09-16T18:53:59.165Z,18.10
2018-09-16T18:56:27.691Z,18.10
2018-09-16T18:58:56.215Z,18.00
2018-09-16T19:01:24.809Z,18.00
2018-09-16T19:03:53.350Z,18.00
2018-09-16T19:06:21.829Z,17.90
2018-09-16T19:08:50.460Z,17.90
2018-09-16T19:11:19.062Z,17.90
2018-09-16T19:13:47.959Z,17.90
2018-09-16T19:16:18.106Z,17.80
2018-09-16T19:18:46.748Z,17.70
2018-09-16T19:21:15.403Z,17.70
2018-09-16T19:23:44.024Z,17.70
2018-09-16T19:26:12.667Z,17.60
2018-09-16T19:28:41.306Z,17.60
2018-09-16T19:31:09.989Z,17.60
2018-09-16T19:33:38.626Z,17.50
2018-09-16T19:36:07.265Z,17.50
2018-09-16T19:38:37.582Z,17.50
2018-09-16T19:41:06.298Z,17.40
2018-09-16T19:43:34.896Z,17.40
2018-09-16T19:46:03.500Z,17.40
2018-09-16T19:48:32.131Z,17.40
2018-09-16T19:51:00.731Z,17.30
2018-09-16T19:53:29.491Z,17.20
2018-09-16T19:55:58.258Z,17.30
2018-09-16T19:58:26.852Z,17.20
2018-09-16T20:00:56.325Z,17.20
2018-09-16T20:03:24.959Z,17.10
2018-09-16T20:05:53.693Z,17.10
2018-09-16T20:08:22.312Z,17.00
2018-09-16T20:10:50.818Z,17.00
2018-09-16T20:13:19.349Z,17.00
2018-09-16T20:15:47.961Z,16.90
2018-09-16T20:18:16.502Z,16.90
2018-09-16T20:20:45.047Z,16.80
2018-09-16T20:23:13.637Z,16.90
2018-09-16T20:25:43.070Z,16.90
2018-09-16T20:28:11.650Z,16.80
2018-09-16T20:30:40.200Z,16.80
2018-09-16T20:33:08.906Z,16.80
2018-09-16T20:35:37.512Z,16.70
2018-09-16T20:38:06.097Z,16.60
2018-09-16T20:40:34.641Z,16.60
2018-09-16T20:43:04.165Z,16.50
2018-09-16T20:45:32.838Z,16.50
2018-09-16T20:48:02.169Z,16.50
2018-09-16T20:50:30.731Z,16.50
2018-09-16T20:52:59.354Z,16.40
2018-09-16T20:55:27.839Z,16.30
2018-09-16T20:57:56.509Z,16.30
2018-09-16T21:00:25.045Z,16.20
2018-09-16T21:02:53.619Z,16.10
2018-09-16T21:05:22.272Z,16.10
2018-09-16T21:07:51.364Z,16.00
2018-09-16T21:10:19.928Z,16.00
2018-09-16T21:12:48.755Z,15.90
2018-09-16T21:15:17.343Z,15.90
2018-09-16T21:17:45.886Z,15.80
2018-09-16T21:20:14.605Z,15.80
2018-09-16T21:22:43.194Z,15.80
2018-09-16T21:25:12.437Z,15.70
2018-09-16T21:27:42.938Z,15.70
2018-09-16T21:30:11.776Z,15.60
2018-09-16T21:32:40.298Z,15.60
2018-09-16T21:35:08.805Z,15.50
2018-09-16T21:37:37.409Z,15.50
2018-09-16T21:40:05.971Z,15.50
2018-09-16T21:42:34.660Z,15.50
2018-09-16T21:45:03.196Z,15.50
2018-09-16T21:47:31.770Z,15.40
2018-09-16T21:50:01.364Z,15.40
2018-09-16T21:52:29.922Z,15.40
2018-09-16T21:54:58.625Z,15.40
2018-09-16T21:57:27.124Z,15.40
2018-09-16T21:59:55.672Z,15.40
2018-09-16T22:02:24.261Z,15.30
2018-09-16T22:04:52.861Z,15.30
2018-09-16T22:07:21.967Z,15.30
2018-09-16T22:09:50.606Z,15.20
2018-09-16T22:12:19.342Z,15.10
2018-09-16T22:14:47.918Z,15.10
2018-09-16T22:17:16.427Z,15.10
2018-09-16T22:19:45.405Z,15.10
2018-09-16T22:22:13.919Z,15.10
2018-09-16T22:24:42.518Z,15.10
2018-09-16T22:27:11.064Z,15.10
2018-09-16T22:29:39.625Z,15.10
2018-09-16T22:32:08.233Z,15.00
2018-09-16T22:34:36.725Z,15.00
2018-09-16T22:37:05.247Z,15.00
2018-09-16T22:39:33.792Z,15.00
2018-09-16T22:42:02.473Z,15.00
2018-09-16T22:44:31.916Z,15.00
2018-09-16T22:47:00.902Z,15.00
2018-09-16T22:49:29.548Z,14.90
2018-09-16T22:51:58.056Z,14.90
2018-09-16T22:54:26.709Z,14.90
2018-09-16T22:56:55.657Z,14.90
2018-09-16T22:59:24.636Z,14.90
2018-09-16T23:01:53.217Z,14.90
2018-09-16T23:04:22.101Z,14.80
2018-09-16T23:06:50.656Z,14.90
2018-09-16T23:09:19.446Z,14.80
2018-09-16T23:11:47.997Z,14.80
2018-09-16T23:14:16.845Z,14.80
2018-09-16T23:16:45.473Z,14.80
2018-09-16T23:19:14.262Z,14.80
2018-09-16T23:21:42.942Z,14.80
2018-09-16T23:24:11.504Z,14.80
2018-09-16T23:26:40.144Z,14.70
2018-09-16T23:29:08.797Z,14.70
2018-09-16T23:31:39.198Z,14.70
2018-09-16T23:34:07.859Z,14.70
2018-09-16T23:36:38.556Z,14.70
2018-09-16T23:39:09.073Z,14.70
2018-09-16T23:41:38.813Z,14.70
2018-09-16T23:44:07.325Z,14.70
2018-09-16T23:46:36.897Z,14.70
2018-09-16T23:49:05.523Z,14.70
2018-09-16T23:51:34.240Z,14.70
2018-09-16T23:54:05.080Z,14.60
2018-09-16T23:56:33.686Z,14.60
2018-09-16T23:59:03.441Z,14.60
